Main page
METAR-TAF:

METAR-TAF

Airports :

Diori Hamani International Airport

Niamey, Niger

latitude: 13-29N, longitude: 002-10E, elevation: 223 m

Current weather observation

The report was made 57 minutes ago, at 19:00 UTC
Wind 3 kt from variable directions
Temperature 39°C
Humidity 12%
Pressure 1006 hPa
Visibility: 7000 m

METAR: DRRN 091900Z VRB03KT 7000 NSC 39/05 Q1006 NOSIG

Time: 20:57 (19:57 UTC)

Forecast

The report was made 2 hours and 57 minutes ago, at 17:00 UTC
Forecast valid from 09 at 18 UTC to 10 at 24 UTC
Wind 6 kt from the West/Southwest
Visibility: 8000 m
Probability 40%
from 10 at 15 UTC to 10 at 20 UTC
Wind 15 kt from the East/Southeast with gusts up to 25 kt
Visibility: 2000 m
Scattered clouds at a height of 3000 ft
Few clouds at a height of 4000 ft, Cumulonimbus.
Blowing dust, thunderstorm

TAF: DRRN 091700Z 0918/1024 24006KT 8000 NSC PROB40 1015/1020 12015G25KT 2000 BLDU TS SCT030 FEW040CB

Weather observations and forecasts of more than 4000 airports (METAR and TAF reports).

The available stations are represented by yellow and red dots on the map.

Hover mouse over dot to see the name of the station.

Then click to see weather observations and forecasts.

To change the map : click on the green buttons with a black cross to zoom in, on the green button with a dash to zoom out, or on the green arrows for adjacent maps.


METAR-TAF: